createdAt,value
2019-04-14T00:00:20.938Z,0.00
2019-04-14T00:01:21.654Z,0.00
2019-04-14T00:02:20.990Z,0.00
2019-04-14T00:03:21.586Z,0.00
2019-04-14T00:04:21.043Z,0.00
2019-04-14T00:05:21.134Z,0.00
2019-04-14T00:06:22.308Z,0.00
2019-04-14T00:07:21.121Z,0.00
2019-04-14T00:08:22.007Z,0.00
2019-04-14T00:12:21.251Z,0.00
2019-04-14T00:13:21.780Z,0.00
2019-04-14T00:14:21.302Z,0.00
2019-04-14T00:15:31.037Z,0.00
2019-04-14T00:16:21.363Z,0.00
2019-04-14T00:17:21.652Z,0.00
2019-04-14T00:18:21.404Z,0.00
2019-04-14T00:19:21.739Z,0.00
2019-04-14T00:20:22.633Z,0.00
2019-04-14T00:22:22.490Z,0.00
2019-04-14T00:23:21.612Z,0.00
2019-04-14T00:24:22.701Z,0.00
2019-04-14T00:25:21.789Z,0.00
2019-04-14T00:26:22.622Z,0.00
2019-04-14T00:27:21.639Z,0.00
2019-04-14T00:28:55.623Z,0.00
2019-04-14T00:29:21.828Z,0.00
2019-04-14T00:30:22.943Z,0.00
2019-04-14T00:31:21.750Z,0.00
2019-04-14T00:32:22.703Z,0.00
2019-04-14T00:33:21.797Z,0.00
2019-04-14T00:34:22.405Z,0.00
2019-04-14T00:35:23.055Z,0.00
2019-04-14T00:36:21.962Z,0.00
2019-04-14T00:37:22.735Z,0.00
2019-04-14T00:38:21.935Z,0.00
2019-04-14T00:39:22.672Z,0.00
2019-04-14T00:40:21.989Z,0.00
2019-04-14T00:42:23.339Z,0.00
2019-04-14T00:43:22.124Z,0.00
2019-04-14T00:44:23.198Z,0.00
2019-04-14T00:45:34.050Z,0.00
2019-04-14T00:46:23.274Z,0.00
2019-04-14T00:47:22.267Z,0.00
2019-04-14T00:48:56.032Z,0.00
2019-04-14T00:49:22.412Z,0.00
2019-04-14T00:50:23.250Z,0.00
2019-04-14T00:51:22.262Z,0.00
2019-04-14T00:52:23.381Z,0.00
2019-04-14T00:53:22.873Z,0.00
2019-04-14T00:54:22.341Z,0.00
2019-04-14T00:55:22.638Z,0.00
2019-04-14T00:56:23.363Z,0.00
2019-04-14T00:57:22.492Z,0.00
2019-04-14T00:58:23.531Z,0.00
2019-04-14T00:59:22.471Z,0.00
2019-04-14T01:00:23.391Z,0.00
2019-04-14T01:01:22.523Z,0.00
2019-04-14T01:02:23.190Z,0.00
2019-04-14T01:04:22.973Z,0.00
2019-04-14T01:05:22.626Z,0.00
2019-04-14T01:06:22.977Z,0.00
2019-04-14T01:07:24.043Z,0.00
2019-04-14T01:08:22.809Z,0.00
2019-04-14T01:09:23.964Z,0.00
2019-04-14T01:10:23.583Z,0.00
2019-04-14T01:11:22.788Z,0.00
2019-04-14T01:12:23.529Z,0.00
2019-04-14T01:13:22.831Z,0.00
2019-04-14T01:14:23.312Z,0.00
2019-04-14T01:15:22.885Z,0.00
2019-04-14T01:16:24.910Z,0.00
2019-04-14T01:17:22.936Z,0.00
2019-04-14T01:18:23.297Z,0.00
2019-04-14T01:19:22.986Z,0.00
2019-04-14T01:20:23.245Z,0.00
2019-04-14T01:21:24.145Z,0.00
2019-04-14T01:22:23.064Z,0.00
2019-04-14T01:23:23.989Z,0.00
2019-04-14T01:24:23.116Z,0.00
2019-04-14T01:25:23.906Z,0.00
2019-04-14T01:26:23.168Z,0.00
2019-04-14T01:27:23.420Z,0.00
2019-04-14T01:28:24.305Z,0.00
2019-04-14T01:29:23.385Z,0.00
2019-04-14T01:30:24.138Z,0.00
2019-04-14T01:31:23.296Z,0.00
2019-04-14T01:32:24.067Z,0.00
2019-04-14T01:33:23.347Z,0.00
2019-04-14T01:34:23.839Z,0.00
2019-04-14T01:36:23.593Z,0.00
2019-04-14T01:37:24.718Z,0.00
2019-04-14T01:38:23.475Z,0.00
2019-04-14T01:39:24.308Z,0.00
2019-04-14T01:40:23.528Z,0.00
2019-04-14T01:41:23.899Z,0.00
2019-04-14T01:42:24.564Z,0.00
2019-04-14T01:43:23.607Z,0.00
2019-04-14T01:44:24.235Z,0.00
2019-04-14T01:45:23.656Z,0.00
2019-04-14T01:46:27.783Z,0.00
2019-04-14T01:47:24.678Z,0.00
2019-04-14T01:48:23.734Z,0.00
2019-04-14T01:49:24.715Z,0.00
2019-04-14T01:50:23.784Z,0.00
2019-04-14T01:51:24.559Z,0.00
2019-04-14T01:52:23.837Z,0.00
2019-04-14T01:53:25.017Z,0.00
2019-04-14T01:54:23.888Z,0.00
2019-04-14T01:55:24.461Z,0.00
2019-04-14T01:56:25.111Z,0.00
2019-04-14T01:57:24.296Z,0.00
2019-04-14T01:58:25.035Z,0.00
2019-04-14T01:59:24.191Z,0.00
2019-04-14T02:00:24.997Z,0.00
2019-04-14T02:01:24.069Z,0.00
2019-04-14T02:02:24.773Z,0.00
2019-04-14T02:03:24.120Z,0.00
2019-04-14T02:04:24.582Z,0.00
2019-04-14T02:05:24.181Z,0.00
2019-04-14T02:06:24.556Z,0.00
2019-04-14T02:07:25.451Z,0.00
2019-04-14T02:08:24.251Z,0.00
2019-04-14T02:09:25.153Z,0.00
2019-04-14T02:10:24.302Z,0.00
2019-04-14T02:11:24.758Z,0.00
2019-04-14T02:12:25.444Z,0.00
2019-04-14T02:13:24.713Z,0.00
2019-04-14T02:14:25.502Z,0.00
2019-04-14T02:15:24.525Z,0.00
2019-04-14T02:16:33.016Z,0.00
2019-04-14T02:17:24.480Z,0.00
2019-04-14T02:18:25.121Z,0.00
2019-04-14T02:19:24.534Z,0.00
2019-04-14T02:20:25.096Z,0.00
2019-04-14T02:21:25.874Z,0.00
2019-04-14T02:22:24.610Z,0.00
2019-04-14T02:23:25.729Z,0.00
2019-04-14T02:24:24.664Z,0.00
2019-04-14T02:25:25.275Z,0.00
2019-04-14T02:26:24.713Z,0.00
2019-04-14T02:27:25.348Z,0.00
2019-04-14T02:28:24.765Z,0.00
2019-04-14T02:29:25.533Z,0.00
2019-04-14T02:30:32.669Z,0.00
2019-04-14T02:31:51.304Z,0.00
2019-04-14T02:32:49.464Z,0.00
2019-04-14T02:33:54.044Z,0.00
2019-04-14T02:35:55.954Z,0.00
2019-04-14T02:36:58.519Z,0.00
2019-04-14T02:37:55.953Z,0.00
2019-04-14T02:39:15.527Z,0.00
2019-04-14T02:40:53.349Z,0.00
2019-04-14T02:42:00.265Z,0.00
2019-04-14T02:43:04.701Z,0.00
2019-04-14T02:43:58.086Z,0.00
2019-04-14T02:44:54.719Z,0.00
2019-04-14T02:49:51.479Z,0.00
2019-04-14T02:50:47.855Z,0.00
2019-04-14T02:51:48.473Z,0.00
2019-04-14T02:54:07.460Z,0.00
2019-04-14T02:55:59.487Z,0.00
2019-04-14T02:56:55.011Z,0.00
2019-04-14T02:57:52.190Z,0.00
2019-04-14T02:58:55.180Z,0.00
2019-04-14T02:59:49.569Z,0.00
2019-04-14T03:00:58.740Z,0.00
2019-04-14T03:02:12.240Z,0.00
2019-04-14T03:02:47.334Z,0.00
2019-04-14T03:03:54.275Z,0.00
2019-04-14T03:04:50.755Z,0.00
2019-04-14T03:05:54.441Z,0.00
2019-04-14T03:07:02.640Z,0.00
2019-04-14T03:07:58.140Z,0.00
2019-04-14T03:08:58.894Z,0.00
2019-04-14T03:09:48.549Z,0.00
2019-04-14T03:11:51.914Z,0.00
2019-04-14T03:14:01.056Z,0.00
2019-04-14T03:14:53.778Z,0.00
2019-04-14T03:17:07.531Z,0.00
2019-04-14T03:18:00.544Z,0.00
2019-04-14T03:20:07.148Z,0.00
2019-04-14T03:21:07.352Z,0.00
2019-04-14T03:21:56.755Z,0.00
2019-04-14T03:22:51.788Z,0.00
2019-04-14T03:24:12.778Z,0.00
2019-04-14T03:24:37.556Z,0.00
2019-04-14T03:25:49.226Z,0.00
2019-04-14T03:26:49.375Z,0.00
2019-04-14T03:27:55.081Z,0.00
2019-04-14T03:29:08.777Z,0.00
2019-04-14T03:29:58.382Z,0.00
2019-04-14T03:33:21.122Z,0.00
2019-04-14T03:34:12.788Z,0.00
2019-04-14T03:37:56.632Z,0.00
2019-04-14T03:39:53.597Z,0.00
2019-04-14T03:40:58.482Z,0.00
2019-04-14T03:41:54.896Z,0.00
2019-04-14T03:42:59.368Z,0.00
2019-04-14T03:43:48.398Z,0.00
2019-04-14T03:44:53.587Z,0.00
2019-04-14T03:46:04.737Z,0.00
2019-04-14T03:48:15.277Z,0.00
2019-04-14T03:49:54.398Z,0.00
2019-04-14T03:50:56.457Z,0.00
2019-04-14T03:52:55.804Z,0.00
2019-04-14T03:54:44.126Z,0.00
2019-04-14T03:55:39.424Z,0.00
2019-04-14T03:56:27.092Z,0.00
2019-04-14T03:57:28.600Z,0.00
2019-04-14T03:58:27.219Z,0.00
2019-04-14T03:59:28.214Z,0.00
2019-04-14T04:00:27.154Z,0.00
2019-04-14T04:01:28.031Z,0.00
2019-04-14T04:02:27.256Z,0.00
2019-04-14T04:03:28.212Z,0.00
2019-04-14T04:04:27.530Z,0.00
2019-04-14T04:05:28.039Z,0.00
2019-04-14T04:06:27.311Z,0.00
2019-04-14T04:07:27.899Z,0.00
2019-04-14T04:08:27.362Z,0.00
2019-04-14T04:09:27.867Z,0.00
2019-04-14T04:10:27.618Z,0.00
2019-04-14T04:11:28.012Z,0.00
2019-04-14T04:12:27.473Z,0.00
2019-04-14T04:13:28.054Z,0.00
2019-04-14T04:14:27.519Z,0.00
2019-04-14T04:15:27.895Z,0.00
2019-04-14T04:16:27.571Z,0.00
2019-04-14T04:17:27.658Z,0.00
2019-04-14T04:18:28.673Z,0.00
2019-04-14T04:19:27.673Z,0.00
2019-04-14T04:20:28.572Z,4.00
2019-04-14T04:21:27.701Z,4.00
2019-04-14T04:22:28.220Z,0.00
2019-04-14T04:23:27.753Z,4.00
2019-04-14T04:24:30.313Z,4.00
2019-04-14T04:25:28.779Z,4.00
2019-04-14T04:26:27.890Z,4.00
2019-04-14T04:27:28.763Z,8.00
2019-04-14T04:28:27.926Z,8.00
2019-04-14T04:30:27.935Z,12.00
2019-04-14T04:31:28.591Z,12.00
2019-04-14T04:32:27.989Z,20.00
2019-04-14T04:33:28.448Z,20.00
2019-04-14T04:34:28.044Z,24.00
2019-04-14T04:35:28.224Z,32.00
2019-04-14T04:36:29.151Z,36.00
2019-04-14T04:37:28.118Z,40.00
2019-04-14T04:38:29.094Z,36.00
2019-04-14T04:39:28.174Z,40.00
2019-04-14T04:40:29.027Z,40.00
2019-04-14T04:41:28.223Z,48.00
2019-04-14T04:42:28.717Z,56.00
2019-04-14T04:43:28.276Z,56.00
2019-04-14T04:44:29.090Z,64.00
2019-04-14T04:45:28.376Z,72.00
2019-04-14T04:46:28.754Z,100.00
2019-04-14T04:47:29.420Z,120.00
2019-04-14T04:48:28.534Z,120.00
2019-04-14T04:49:30.532Z,132.00
2019-04-14T04:50:28.456Z,132.00
2019-04-14T04:51:28.962Z,136.00
2019-04-14T04:52:28.508Z,140.00
2019-04-14T04:53:28.856Z,124.00
2019-04-14T04:54:28.560Z,116.00
2019-04-14T04:55:28.703Z,124.00
2019-04-14T04:57:28.838Z,132.00
2019-04-14T04:58:28.662Z,152.00
2019-04-14T04:59:30.117Z,188.00
2019-04-14T05:00:28.916Z,192.00
2019-04-14T05:01:29.593Z,172.00
2019-04-14T05:02:28.846Z,176.00
2019-04-14T05:03:29.696Z,192.00
2019-04-14T05:04:30.807Z,184.00
2019-04-14T05:06:28.920Z,208.00
2019-04-14T05:07:29.513Z,204.00
2019-04-14T05:08:28.921Z,192.00
2019-04-14T05:09:29.590Z,192.00
2019-04-14T05:10:28.972Z,192.00
2019-04-14T05:11:29.496Z,184.00
2019-04-14T05:12:29.024Z,196.00
2019-04-14T05:13:29.277Z,232.00
2019-04-14T05:14:29.075Z,260.00
2019-04-14T05:15:29.161Z,260.00
2019-04-14T05:16:30.067Z,256.00
2019-04-14T05:17:29.861Z,264.00
2019-04-14T05:18:29.386Z,264.00
2019-04-14T05:19:33.642Z,260.00
2019-04-14T05:20:29.635Z,248.00
2019-04-14T05:21:29.990Z,248.00
2019-04-14T05:22:29.285Z,256.00
2019-04-14T05:23:29.927Z,284.00
2019-04-14T05:24:29.384Z,312.00
2019-04-14T05:25:29.732Z,312.00
2019-04-14T05:26:29.387Z,308.00
2019-04-14T05:27:29.822Z,332.00
2019-04-14T05:28:29.439Z,384.00
2019-04-14T05:29:29.764Z,432.00
2019-04-14T05:31:30.887Z,532.00
2019-04-14T05:32:30.510Z,620.00
2019-04-14T05:33:29.567Z,592.00
2019-04-14T05:35:29.621Z,548.00
2019-04-14T05:37:31.071Z,516.00
2019-04-14T05:40:30.051Z,596.00
2019-04-14T05:41:30.836Z,584.00
2019-04-14T05:42:30.166Z,584.00
2019-04-14T05:43:38.686Z,624.00
2019-04-14T05:46:29.905Z,784.00
2019-04-14T05:47:30.561Z,836.00
2019-04-14T05:48:29.959Z,828.00
2019-04-14T05:49:38.163Z,780.00
2019-04-14T05:50:31.246Z,768.00
2019-04-14T05:51:30.508Z,768.00
2019-04-14T05:52:30.063Z,784.00
2019-04-14T05:53:30.548Z,844.00
2019-04-14T05:54:30.115Z,944.00
2019-04-14T05:55:30.633Z,1100.00
2019-04-14T05:56:30.170Z,1208.00
2019-04-14T05:57:30.584Z,1220.00
2019-04-14T05:58:30.221Z,1188.00
2019-04-14T05:59:30.763Z,1196.00
2019-04-14T06:00:30.269Z,1148.00
2019-04-14T06:02:31.996Z,1104.00
2019-04-14T06:03:30.350Z,1048.00
2019-04-14T06:04:31.009Z,1052.00
2019-04-14T06:05:31.694Z,1028.00
2019-04-14T06:06:30.427Z,928.00
2019-04-14T06:07:30.455Z,848.00
2019-04-14T06:08:30.482Z,824.00
2019-04-14T06:09:30.506Z,812.00
2019-04-14T06:10:30.533Z,780.00
2019-04-14T06:11:30.558Z,748.00
2019-04-14T06:12:30.586Z,724.00
2019-04-14T06:13:30.616Z,704.00
2019-04-14T06:14:30.636Z,692.00
2019-04-14T06:15:30.664Z,692.00
2019-04-14T06:16:30.687Z,720.00
2019-04-14T06:17:30.915Z,760.00
2019-04-14T06:18:30.997Z,768.00
2019-04-14T06:21:30.817Z,860.00
2019-04-14T06:22:30.844Z,884.00
2019-04-14T06:23:30.870Z,888.00
2019-04-14T06:24:30.898Z,844.00
2019-04-14T06:25:30.922Z,780.00
2019-04-14T06:26:30.948Z,752.00
2019-04-14T06:27:30.974Z,784.00
2019-04-14T06:28:31.000Z,860.00
2019-04-14T06:29:31.028Z,932.00
2019-04-14T06:30:31.253Z,984.00
2019-04-14T06:31:31.078Z,1032.00
2019-04-14T06:32:31.103Z,1044.00
2019-04-14T06:33:31.128Z,1020.00
2019-04-14T06:34:31.155Z,1008.00
2019-04-14T06:35:31.382Z,1008.00
2019-04-14T06:36:31.207Z,1024.00
2019-04-14T06:37:31.235Z,1032.00
2019-04-14T06:38:31.258Z,1028.00
2019-04-14T06:39:31.288Z,1052.00
2019-04-14T06:40:31.315Z,1060.00
2019-04-14T06:41:31.538Z,1068.00
2019-04-14T06:42:31.364Z,1080.00
2019-04-14T06:43:31.390Z,1144.00
2019-04-14T06:44:31.416Z,1240.00
2019-04-14T06:46:31.468Z,1424.00
2019-04-14T06:47:31.494Z,1644.00
2019-04-14T06:48:31.521Z,1908.00
2019-04-14T06:49:31.546Z,2108.00
2019-04-14T06:50:31.571Z,1924.00
2019-04-14T06:51:31.599Z,1832.00
2019-04-14T06:52:31.625Z,1936.00
2019-04-14T06:53:31.650Z,2220.00
2019-04-14T06:54:31.879Z,2452.00
2019-04-14T06:55:31.705Z,2864.00
2019-04-14T06:57:31.755Z,3276.00
2019-04-14T06:58:31.781Z,3008.00
2019-04-14T06:59:31.818Z,2468.00
2019-04-14T07:00:31.835Z,2304.00
2019-04-14T07:01:31.861Z,2444.00
2019-04-14T07:02:31.889Z,2456.00
2019-04-14T07:03:31.917Z,2412.00
2019-04-14T07:04:31.940Z,2796.00
2019-04-14T07:05:31.966Z,2568.00
2019-04-14T07:06:31.994Z,2336.00
2019-04-14T07:07:32.019Z,2332.00
2019-04-14T07:08:32.046Z,2196.00
2019-04-14T07:09:32.072Z,2148.00
2019-04-14T07:10:32.098Z,2704.00
2019-04-14T07:11:32.128Z,3256.00
2019-04-14T07:12:32.151Z,3168.00
2019-04-14T07:13:32.179Z,2864.00
2019-04-14T07:14:32.208Z,2340.00
2019-04-14T07:15:32.241Z,2588.00
2019-04-14T07:16:32.255Z,2912.00
2019-04-14T07:17:32.508Z,3012.00
2019-04-14T07:18:32.535Z,3308.00
2019-04-14T07:19:32.338Z,3292.00
2019-04-14T07:20:32.363Z,3536.00
2019-04-14T07:21:32.387Z,3432.00
2019-04-14T07:22:32.415Z,3128.00
2019-04-14T07:23:32.440Z,3020.00
2019-04-14T07:24:32.467Z,2736.00
2019-04-14T07:25:32.492Z,2732.00
2019-04-14T07:26:32.520Z,2700.00
2019-04-14T07:27:32.546Z,2520.00
2019-04-14T07:28:32.572Z,2556.00
2019-04-14T07:29:32.598Z,2572.00
2019-04-14T07:30:32.631Z,2512.00
2019-04-14T07:31:32.651Z,2528.00
2019-04-14T07:36:58.594Z,3792.00
2019-04-14T07:38:58.647Z,3696.00
2019-04-14T07:39:58.673Z,3304.00
2019-04-14T07:40:58.700Z,3020.00
2019-04-14T07:41:58.726Z,2872.00
2019-04-14T07:42:58.753Z,2744.00
2019-04-14T07:43:58.779Z,2720.00
2019-04-14T07:44:58.805Z,2996.00
2019-04-14T07:45:58.833Z,3192.00
2019-04-14T07:46:58.859Z,3288.00
2019-04-14T07:47:58.885Z,3556.00
2019-04-14T07:48:58.911Z,3400.00
2019-04-14T07:49:58.938Z,2940.00
2019-04-14T07:50:58.969Z,2764.00
2019-04-14T07:51:58.991Z,2792.00
2019-04-14T07:52:59.018Z,2892.00
2019-04-14T07:53:59.044Z,3160.00
2019-04-14T07:54:59.073Z,3504.00
2019-04-14T07:55:59.102Z,3656.00
2019-04-14T07:56:59.125Z,4116.00
2019-04-14T07:57:59.153Z,4124.00
2019-04-14T07:58:59.186Z,4048.00
2019-04-14T07:59:59.204Z,4088.00
2019-04-14T08:00:59.231Z,4172.00
2019-04-14T08:01:59.261Z,4404.00
2019-04-14T08:02:59.289Z,4504.00
2019-04-14T08:03:59.313Z,4612.00
2019-04-14T08:04:59.338Z,4616.00
2019-04-14T08:05:59.370Z,4524.00
2019-04-14T08:06:59.393Z,4060.00
2019-04-14T08:07:59.420Z,3548.00
2019-04-14T08:08:59.449Z,3328.00
2019-04-14T08:09:59.474Z,3176.00
2019-04-14T08:10:59.503Z,3052.00
2019-04-14T08:11:59.526Z,2944.00
2019-04-14T08:12:59.554Z,3032.00
2019-04-14T08:13:59.581Z,3232.00
2019-04-14T08:14:59.608Z,3428.00
2019-04-14T08:15:59.633Z,3712.00
2019-04-14T08:16:59.662Z,3584.00
2019-04-14T08:17:59.688Z,3404.00
2019-04-14T08:18:59.715Z,3380.00
2019-04-14T08:19:59.741Z,3604.00
2019-04-14T08:20:59.770Z,3780.00
2019-04-14T08:21:59.796Z,4356.00
2019-04-14T08:22:59.823Z,4996.00
2019-04-14T08:23:59.849Z,5468.00
2019-04-14T08:24:59.877Z,5780.00
2019-04-14T08:25:59.903Z,5452.00
2019-04-14T08:26:59.931Z,4936.00
2019-04-14T08:27:59.957Z,5100.00
2019-04-14T08:28:59.984Z,4656.00
2019-04-14T08:30:00.011Z,4088.00
2019-04-14T08:31:00.038Z,3860.00
2019-04-14T08:32:00.064Z,4180.00
2019-04-14T08:33:00.092Z,4520.00
2019-04-14T08:34:00.120Z,4712.00
2019-04-14T08:35:00.149Z,5300.00
2019-04-14T08:36:00.172Z,6096.00
2019-04-14T08:37:00.199Z,6032.00
2019-04-14T08:38:00.477Z,5476.00
2019-04-14T08:39:00.255Z,4916.00
2019-04-14T08:40:00.280Z,4740.00
2019-04-14T08:41:00.309Z,4420.00
2019-04-14T08:42:00.336Z,4164.00
2019-04-14T08:43:00.362Z,3980.00
2019-04-14T08:44:00.390Z,4072.00
2019-04-14T08:45:00.416Z,4360.00
2019-04-14T08:46:00.443Z,4496.00
2019-04-14T08:47:00.471Z,4620.00
2019-04-14T08:48:00.497Z,4708.00
2019-04-14T08:49:00.525Z,4828.00
2019-04-14T08:50:00.552Z,5172.00
2019-04-14T08:51:00.629Z,4480.00
2019-04-14T08:52:00.605Z,3952.00
2019-04-14T08:53:00.634Z,3952.00
2019-04-14T08:54:00.661Z,4132.00
2019-04-14T08:55:00.688Z,4112.00
2019-04-14T08:56:00.714Z,3968.00
2019-04-14T08:57:00.743Z,3608.00
2019-04-14T08:58:00.770Z,3472.00
2019-04-14T08:59:00.798Z,3436.00
2019-04-14T09:00:00.833Z,3400.00
2019-04-14T09:01:00.851Z,3412.00
2019-04-14T09:02:00.879Z,3420.00
2019-04-14T09:03:00.906Z,3580.00
2019-04-14T09:04:00.932Z,3640.00
2019-04-14T09:05:00.959Z,3804.00
2019-04-14T09:06:00.987Z,3920.00
2019-04-14T09:07:01.015Z,3976.00
2019-04-14T09:08:01.040Z,4152.00
2019-04-14T09:09:01.071Z,4216.00
2019-04-14T09:10:01.096Z,4224.00
2019-04-14T09:11:01.123Z,4248.00
2019-04-14T09:12:01.149Z,4400.00
2019-04-14T09:13:01.185Z,4584.00
2019-04-14T09:14:01.203Z,4644.00
2019-04-14T09:15:01.237Z,4472.00
2019-04-14T09:16:01.257Z,4424.00
2019-04-14T09:17:01.285Z,4588.00
2019-04-14T09:18:01.314Z,4620.00
2019-04-14T09:19:07.474Z,4428.00
2019-04-14T09:20:01.393Z,4320.00
2019-04-14T09:21:01.396Z,4132.00
2019-04-14T09:22:01.422Z,4036.00
2019-04-14T09:23:01.446Z,4184.00
2019-04-14T09:24:01.478Z,4384.00
2019-04-14T09:25:01.502Z,4204.00
2019-04-14T09:26:01.528Z,4140.00
2019-04-14T09:27:01.556Z,4000.00
2019-04-14T09:28:01.582Z,3848.00
2019-04-14T09:29:01.609Z,4096.00
2019-04-14T09:30:01.645Z,4328.00
2019-04-14T09:31:01.665Z,4636.00
2019-04-14T09:32:01.689Z,4820.00
2019-04-14T09:33:01.717Z,4812.00
2019-04-14T09:34:01.744Z,4484.00
2019-04-14T09:35:01.777Z,4296.00
2019-04-14T09:36:01.835Z,4092.00
2019-04-14T09:37:01.826Z,4440.00
2019-04-14T09:38:01.854Z,4932.00
2019-04-14T09:39:01.881Z,5136.00
2019-04-14T09:40:01.916Z,4636.00
2019-04-14T09:41:01.935Z,4528.00
2019-04-14T09:42:01.963Z,4836.00
2019-04-14T09:43:01.990Z,5544.00
2019-04-14T09:44:02.033Z,6536.00
2019-04-14T09:45:02.044Z,7820.00
2019-04-14T09:46:02.071Z,9364.00
2019-04-14T09:47:02.098Z,9260.00
2019-04-14T09:48:02.125Z,9416.00
2019-04-14T09:49:02.154Z,9844.00
2019-04-14T09:50:02.181Z,10348.00
2019-04-14T09:51:05.140Z,10696.00
2019-04-14T09:52:02.234Z,10436.00
2019-04-14T09:53:02.262Z,9860.00
2019-04-14T09:54:02.289Z,9068.00
2019-04-14T09:55:02.316Z,8248.00
2019-04-14T09:56:02.344Z,7596.00
2019-04-14T09:57:02.370Z,7488.00
2019-04-14T09:58:02.401Z,7484.00
2019-04-14T09:59:02.426Z,7620.00
2019-04-14T10:00:02.454Z,8044.00
2019-04-14T10:01:02.530Z,8668.00
2019-04-14T10:02:02.509Z,9292.00
2019-04-14T10:03:02.537Z,9468.00
2019-04-14T10:04:02.563Z,9192.00
2019-04-14T10:05:02.593Z,9480.00
2019-04-14T10:06:02.622Z,10056.00
2019-04-14T10:07:02.647Z,11184.00
2019-04-14T10:08:02.674Z,11600.00
2019-04-14T10:09:02.702Z,11868.00
2019-04-14T10:10:02.733Z,11264.00
2019-04-14T10:11:02.758Z,10924.00
2019-04-14T10:12:02.786Z,10968.00
2019-04-14T10:13:02.815Z,11376.00
2019-04-14T10:14:02.842Z,11248.00
2019-04-14T10:15:02.870Z,10764.00
2019-04-14T10:16:02.899Z,9756.00
2019-04-14T10:17:02.927Z,8856.00
2019-04-14T10:18:02.954Z,8036.00
2019-04-14T10:19:02.985Z,7756.00
2019-04-14T10:20:03.010Z,7368.00
2019-04-14T10:21:03.040Z,6496.00
2019-04-14T10:22:03.066Z,5996.00
2019-04-14T10:23:03.096Z,5720.00
2019-04-14T10:24:03.123Z,5576.00
2019-04-14T10:25:03.151Z,5644.00
2019-04-14T10:26:03.182Z,6184.00
2019-04-14T10:27:03.207Z,6760.00
2019-04-14T10:28:03.234Z,7032.00
2019-04-14T10:29:03.263Z,7844.00
2019-04-14T10:30:03.337Z,8312.00
2019-04-14T10:31:03.320Z,8736.00
2019-04-14T10:32:03.348Z,8828.00
2019-04-14T10:33:03.374Z,9160.00
2019-04-14T10:34:03.402Z,9548.00
2019-04-14T10:35:03.432Z,8812.00
2019-04-14T10:36:03.460Z,8580.00
2019-04-14T10:37:03.487Z,8416.00
2019-04-14T10:38:03.515Z,8460.00
2019-04-14T10:39:03.543Z,8876.00
2019-04-14T10:40:05.974Z,9372.00
2019-04-14T10:41:03.597Z,9492.00
2019-04-14T10:42:03.626Z,8848.00
2019-04-14T10:43:03.655Z,7728.00
2019-04-14T10:44:03.680Z,7200.00
2019-04-14T10:45:03.708Z,7452.00
2019-04-14T10:46:03.749Z,7624.00
2019-04-14T10:47:03.765Z,8304.00
2019-04-14T10:48:03.796Z,9044.00
2019-04-14T10:49:03.821Z,9720.00
2019-04-14T10:50:03.848Z,11508.00
2019-04-14T10:51:03.877Z,13640.00
2019-04-14T10:52:03.905Z,14404.00
2019-04-14T10:53:03.933Z,14016.00
2019-04-14T10:54:03.963Z,14280.00
2019-04-14T10:55:03.990Z,13772.00
2019-04-14T10:56:04.017Z,11732.00
2019-04-14T10:57:04.045Z,10244.00
2019-04-14T10:58:04.073Z,9592.00
2019-04-14T10:59:04.109Z,9468.00
2019-04-14T11:00:04.129Z,9540.00
2019-04-14T11:01:04.158Z,9876.00
2019-04-14T11:02:04.185Z,10828.00
2019-04-14T11:03:04.214Z,11432.00
2019-04-14T11:04:04.241Z,11500.00
2019-04-14T11:05:04.269Z,10612.00
2019-04-14T11:06:05.905Z,10080.00
2019-04-14T11:07:04.327Z,11116.00
2019-04-14T11:08:04.355Z,12472.00
2019-04-14T11:09:04.383Z,12144.00
2019-04-14T11:10:04.413Z,11992.00
2019-04-14T11:11:04.440Z,12640.00
2019-04-14T11:12:04.535Z,14600.00
2019-04-14T11:13:04.496Z,15304.00
2019-04-14T11:14:04.524Z,15928.00
2019-04-14T11:15:04.557Z,16144.00
2019-04-14T11:16:04.581Z,15152.00
2019-04-14T11:17:04.635Z,15176.00
2019-04-14T11:18:04.638Z,14316.00
2019-04-14T11:19:04.668Z,13180.00
2019-04-14T11:20:04.695Z,14372.00
2019-04-14T11:21:04.728Z,15460.00
2019-04-14T11:22:04.824Z,15376.00
2019-04-14T11:23:04.782Z,15444.00
2019-04-14T11:24:04.810Z,15204.00
2019-04-14T11:25:04.839Z,14140.00
2019-04-14T11:26:07.491Z,12884.00
2019-04-14T11:27:04.899Z,12080.00
2019-04-14T11:28:04.947Z,11392.00
2019-04-14T11:29:04.958Z,11216.00
2019-04-14T11:30:05.011Z,11084.00
2019-04-14T11:31:05.013Z,11104.00
2019-04-14T11:32:05.042Z,11912.00
2019-04-14T11:33:05.071Z,11716.00
2019-04-14T11:34:05.100Z,10752.00
2019-04-14T11:35:05.153Z,9716.00
2019-04-14T11:36:05.166Z,9676.00
2019-04-14T11:37:05.194Z,9776.00
2019-04-14T11:38:05.216Z,9476.00
2019-04-14T11:39:05.246Z,8580.00
2019-04-14T11:40:05.273Z,8184.00
2019-04-14T11:41:05.302Z,8108.00
2019-04-14T11:42:05.331Z,8488.00
2019-04-14T11:43:05.361Z,9132.00
2019-04-14T11:44:05.403Z,9364.00
2019-04-14T11:45:05.419Z,9488.00
2019-04-14T11:46:05.464Z,8948.00
2019-04-14T11:47:05.476Z,8508.00
2019-04-14T11:48:05.509Z,8308.00
2019-04-14T11:49:05.543Z,8268.00
2019-04-14T11:50:05.564Z,8664.00
2019-04-14T11:51:05.591Z,8308.00
2019-04-14T11:52:05.621Z,8680.00
2019-04-14T11:53:05.649Z,8692.00
2019-04-14T11:54:05.678Z,8048.00
2019-04-14T11:55:05.710Z,7992.00
2019-04-14T11:56:05.745Z,8328.00
2019-04-14T11:57:05.764Z,9044.00
2019-04-14T11:58:05.793Z,9176.00
2019-04-14T11:59:05.840Z,9068.00
2019-04-14T12:00:05.850Z,8856.00
2019-04-14T12:01:05.880Z,8152.00
2019-04-14T12:02:05.908Z,8392.00
2019-04-14T12:03:05.939Z,9712.00
2019-04-14T12:04:05.966Z,10036.00
2019-04-14T12:05:05.993Z,9916.00
2019-04-14T12:06:06.022Z,9084.00
2019-04-14T12:07:06.053Z,8628.00
2019-04-14T12:08:06.079Z,7560.00
2019-04-14T12:09:06.108Z,7848.00
2019-04-14T12:10:06.136Z,8476.00
2019-04-14T12:11:06.165Z,9136.00
2019-04-14T12:13:06.222Z,7832.00
2019-04-14T12:14:06.252Z,9016.00
2019-04-14T12:15:07.665Z,9528.00
2019-04-14T12:16:06.307Z,9708.00
2019-04-14T12:17:06.336Z,9888.00
2019-04-14T12:18:06.367Z,9916.00
2019-04-14T12:19:06.395Z,8456.00
2019-04-14T12:20:06.423Z,7412.00
2019-04-14T12:21:06.652Z,7376.00
2019-04-14T12:22:08.516Z,8084.00
2019-04-14T12:23:06.507Z,9260.00
2019-04-14T12:24:06.537Z,10712.00
2019-04-14T12:25:06.565Z,10744.00
2019-04-14T12:26:06.598Z,10544.00
2019-04-14T12:27:06.623Z,10728.00
2019-04-14T12:28:06.952Z,11252.00
2019-04-14T12:29:06.681Z,11120.00
2019-04-14T12:30:06.709Z,10244.00
2019-04-14T12:31:06.739Z,9208.00
2019-04-14T12:32:06.768Z,7980.00
2019-04-14T12:33:06.796Z,7688.00
2019-04-14T12:34:06.824Z,7164.00
2019-04-14T12:35:06.852Z,6984.00
2019-04-14T12:36:06.880Z,7032.00
2019-04-14T12:37:06.909Z,7424.00
2019-04-14T12:38:06.938Z,7344.00
2019-04-14T12:39:06.967Z,7496.00
2019-04-14T12:40:07.355Z,7564.00
2019-04-14T12:41:08.196Z,7228.00
2019-04-14T12:42:07.053Z,7160.00
2019-04-14T12:43:07.082Z,6852.00
2019-04-14T12:44:07.110Z,6580.00
2019-04-14T12:45:07.138Z,6580.00
2019-04-14T12:46:07.167Z,6564.00
2019-04-14T12:47:07.194Z,6472.00
2019-04-14T12:48:07.222Z,6276.00
2019-04-14T12:49:07.251Z,6128.00
2019-04-14T12:50:07.280Z,5672.00
2019-04-14T12:51:07.359Z,5576.00
2019-04-14T12:52:20.298Z,5760.00
2019-04-14T12:53:07.368Z,6024.00
2019-04-14T12:54:07.398Z,6224.00
2019-04-14T12:55:07.421Z,6136.00
2019-04-14T12:56:07.451Z,6032.00
2019-04-14T12:57:07.479Z,6136.00
2019-04-14T12:58:07.507Z,6308.00
2019-04-14T12:59:07.535Z,6416.00
2019-04-14T13:00:07.563Z,6276.00
2019-04-14T13:01:07.592Z,6012.00
2019-04-14T13:02:07.620Z,5832.00
2019-04-14T13:03:07.647Z,5732.00
2019-04-14T13:04:07.676Z,5720.00
2019-04-14T13:05:07.705Z,5512.00
2019-04-14T13:06:07.758Z,5168.00
2019-04-14T13:07:07.763Z,4888.00
2019-04-14T13:08:07.793Z,4716.00
2019-04-14T13:09:07.819Z,4724.00
2019-04-14T13:10:07.853Z,4696.00
2019-04-14T13:11:07.876Z,4892.00
2019-04-14T13:12:10.329Z,5156.00
2019-04-14T13:13:07.937Z,5116.00
2019-04-14T13:14:07.960Z,4980.00
2019-04-14T13:15:07.988Z,4796.00
2019-04-14T13:16:08.015Z,4520.00
2019-04-14T13:17:08.044Z,4388.00
2019-04-14T13:18:08.073Z,4444.00
2019-04-14T13:19:08.434Z,4604.00
2019-04-14T13:20:08.131Z,4916.00